createdAt,value
2023-03-01T00:01:29.189Z,37.46
2023-03-01T00:03:58.086Z,37.56
2023-03-01T00:06:28.504Z,37.58
2023-03-01T00:08:57.275Z,37.54
2023-03-01T00:11:27.028Z,37.51
2023-03-01T00:13:57.260Z,37.45
2023-03-01T00:16:28.111Z,37.52
2023-03-01T00:18:56.773Z,37.42
2023-03-01T00:21:25.501Z,37.52
2023-03-01T00:23:55.895Z,37.54
2023-03-01T00:26:25.716Z,37.61
2023-03-01T00:28:54.440Z,37.53
2023-03-01T00:31:24.786Z,37.47
2023-03-01T00:33:58.472Z,37.48
2023-03-01T00:36:28.024Z,37.42
2023-03-01T00:38:58.327Z,37.39
2023-03-01T00:41:27.803Z,37.48
2023-03-01T00:43:56.745Z,37.38
2023-03-01T00:46:26.685Z,37.37
2023-03-01T00:48:55.445Z,37.39
2023-03-01T00:51:25.428Z,37.37
2023-03-01T00:53:54.538Z,37.44
2023-03-01T00:56:24.587Z,37.44
2023-03-01T00:58:53.202Z,37.41
2023-03-01T01:01:24.225Z,37.37
2023-03-01T01:03:54.157Z,37.35
2023-03-01T01:06:24.110Z,37.38
2023-03-01T01:08:53.154Z,37.47
2023-03-01T01:11:23.501Z,37.44
2023-03-01T01:13:52.251Z,37.39
2023-03-01T01:16:21.708Z,37.42
2023-03-01T01:18:52.269Z,37.36
2023-03-01T01:21:23.827Z,37.31
2023-03-01T01:23:52.525Z,37.31
2023-03-01T01:26:24.741Z,37.28
2023-03-01T01:28:53.407Z,37.26
2023-03-01T01:31:24.714Z,37.16
2023-03-01T01:33:53.597Z,37.27
2023-03-01T01:36:22.550Z,37.18
2023-03-01T01:38:51.273Z,37.19
2023-03-01T01:41:19.959Z,37.14
2023-03-01T01:43:51.450Z,37.12
2023-03-01T01:46:26.483Z,37.15
2023-03-01T01:48:58.696Z,37.09
2023-03-01T01:51:29.552Z,37.19
2023-03-01T01:54:01.458Z,37.16
2023-03-01T01:56:30.396Z,37.14
2023-03-01T01:59:00.656Z,36.98
2023-03-01T02:01:29.311Z,37.00
2023-03-01T02:03:57.892Z,37.08
2023-03-01T02:06:33.353Z,37.08
2023-03-01T02:09:04.608Z,37.03
2023-03-01T02:11:33.768Z,37.05
2023-03-01T02:14:03.803Z,37.00
2023-03-01T02:16:33.091Z,36.95
2023-03-01T02:19:01.985Z,36.86
2023-03-01T02:21:39.889Z,36.96
2023-03-01T02:24:15.980Z,37.01
2023-03-01T02:26:51.098Z,37.00
2023-03-01T02:29:21.078Z,36.86
2023-03-01T02:31:50.182Z,36.90
2023-03-01T02:34:20.195Z,36.89
2023-03-01T02:36:50.752Z,36.85
2023-03-01T02:39:21.268Z,36.66
2023-03-01T02:41:53.590Z,36.73
2023-03-01T02:44:23.783Z,36.82
2023-03-01T02:46:54.077Z,36.68
2023-03-01T02:49:25.895Z,36.76
2023-03-01T02:52:29.625Z,36.70
2023-03-01T02:55:01.373Z,36.65
2023-03-01T02:57:31.023Z,36.65
2023-03-01T03:00:08.066Z,36.72
2023-03-01T03:02:39.736Z,36.58
2023-03-01T03:05:11.676Z,36.67
2023-03-01T03:07:41.897Z,36.69
2023-03-01T03:10:13.298Z,36.61
2023-03-01T03:12:41.912Z,36.71
2023-03-01T03:15:13.775Z,36.50
2023-03-01T03:17:45.238Z,36.57
2023-03-01T03:20:20.213Z,36.56
2023-03-01T03:22:49.188Z,36.62
2023-03-01T03:25:18.036Z,36.49
2023-03-01T03:27:47.783Z,36.45
2023-03-01T03:30:19.373Z,36.46
2023-03-01T03:32:53.545Z,36.45
2023-03-01T03:35:23.334Z,36.52
2023-03-01T03:38:03.704Z,36.56
2023-03-01T03:40:34.250Z,36.37
2023-03-01T03:43:02.925Z,36.52
2023-03-01T03:45:34.576Z,36.38
2023-03-01T03:48:03.339Z,36.40
2023-03-01T03:50:32.023Z,36.50
2023-03-01T03:53:02.170Z,36.43
2023-03-01T03:55:31.723Z,36.29
2023-03-01T03:58:03.230Z,36.39
2023-03-01T04:00:33.423Z,36.31
2023-03-01T04:03:02.130Z,36.32
2023-03-01T04:05:30.736Z,36.37
2023-03-01T04:08:08.216Z,36.31
2023-03-01T04:10:38.919Z,36.32
2023-03-01T04:13:07.891Z,36.25
2023-03-01T04:15:38.134Z,36.19
2023-03-01T04:18:07.083Z,36.35
2023-03-01T04:20:36.760Z,36.25
2023-03-01T04:23:14.214Z,36.26
2023-03-01T04:25:44.226Z,36.20
2023-03-01T04:28:12.869Z,36.41
2023-03-01T04:30:42.746Z,36.26
2023-03-01T04:33:12.057Z,36.16
2023-03-01T04:35:41.603Z,36.31
2023-03-01T04:38:10.373Z,36.16
2023-03-01T04:40:39.016Z,36.30
2023-03-01T04:43:07.594Z,36.23
2023-03-01T04:45:36.723Z,36.14
2023-03-01T04:48:07.790Z,36.21
2023-03-01T04:50:36.874Z,36.24
2023-03-01T04:53:05.677Z,36.10
2023-03-01T04:55:34.287Z,36.29
2023-03-01T04:58:03.097Z,36.10
2023-03-01T05:00:31.646Z,36.10
2023-03-01T05:03:03.677Z,36.14
2023-03-01T05:05:35.148Z,36.26
2023-03-01T05:08:05.438Z,36.22
2023-03-01T05:10:36.310Z,36.05
2023-03-01T05:13:05.244Z,36.14
2023-03-01T05:15:34.088Z,36.03
2023-03-01T05:18:02.691Z,36.08
2023-03-01T05:20:33.026Z,36.04
2023-03-01T05:23:06.314Z,35.95
2023-03-01T05:25:35.971Z,36.09
2023-03-01T05:28:05.567Z,36.04
2023-03-01T05:30:34.871Z,36.05
2023-03-01T05:33:03.542Z,36.06
2023-03-01T05:35:35.297Z,36.05
2023-03-01T05:38:03.970Z,35.97
2023-03-01T05:40:32.685Z,36.04
2023-03-01T05:43:01.208Z,35.96
2023-03-01T05:45:30.175Z,35.90
2023-03-01T05:47:58.769Z,35.90
2023-03-01T05:50:28.572Z,35.92
2023-03-01T05:53:02.034Z,35.94
2023-03-01T05:55:31.836Z,35.93
2023-03-01T05:58:01.815Z,35.94
2023-03-01T06:00:30.855Z,35.89
2023-03-01T06:03:00.102Z,35.87
2023-03-01T06:05:29.143Z,35.99
2023-03-01T06:07:57.859Z,36.00
2023-03-01T06:10:27.840Z,36.74
2023-03-01T06:12:56.572Z,36.31
2023-03-01T06:15:25.237Z,36.48
2023-03-01T06:17:53.942Z,36.48
2023-03-01T06:20:25.259Z,36.66
2023-03-01T06:22:54.093Z,36.78
2023-03-01T06:25:27.489Z,36.92
2023-03-01T06:27:56.254Z,36.74
2023-03-01T06:30:25.918Z,35.29
2023-03-01T06:33:02.503Z,35.06
2023-03-01T06:35:32.257Z,36.33
2023-03-01T06:38:01.520Z,36.70
2023-03-01T06:40:32.241Z,36.79
2023-03-01T06:43:02.025Z,37.52
2023-03-01T06:45:30.752Z,37.07
2023-03-01T06:48:06.411Z,37.26
2023-03-01T06:50:35.401Z,37.20
2023-03-01T06:53:04.026Z,36.93
2023-03-01T06:55:34.038Z,36.92
2023-03-01T06:58:03.979Z,36.97
2023-03-01T07:00:32.617Z,37.08
2023-03-01T07:03:03.124Z,36.89
2023-03-01T07:05:32.149Z,36.92
2023-03-01T07:08:00.725Z,36.66
2023-03-01T07:10:29.415Z,36.87
2023-03-01T07:13:01.924Z,36.67
2023-03-01T07:15:30.683Z,36.90
2023-03-01T07:17:59.457Z,36.90
2023-03-01T07:20:28.096Z,36.76
2023-03-01T07:22:57.534Z,36.93
2023-03-01T07:25:26.409Z,36.92
2023-03-01T07:27:55.225Z,37.13
2023-03-01T07:30:27.098Z,36.89
2023-03-01T07:32:56.354Z,35.76
2023-03-01T07:35:25.416Z,36.07
2023-03-01T07:37:54.438Z,36.61
2023-03-01T07:40:23.215Z,36.71
2023-03-01T07:42:51.842Z,36.86
2023-03-01T07:45:20.718Z,36.83
2023-03-01T07:47:51.768Z,36.85
2023-03-01T07:50:22.228Z,36.86
2023-03-01T07:52:51.508Z,36.70
2023-03-01T07:55:21.065Z,36.74
2023-03-01T07:57:49.665Z,36.92
2023-03-01T08:00:19.462Z,36.87
2023-03-01T08:02:48.117Z,36.82
2023-03-01T08:05:18.815Z,36.84
2023-03-01T08:07:47.485Z,36.63
2023-03-01T08:10:16.264Z,36.81
2023-03-01T08:12:44.815Z,36.79
2023-03-01T08:15:13.689Z,36.71
2023-03-01T08:17:42.282Z,36.61
2023-03-01T08:20:13.665Z,36.72
2023-03-01T08:22:43.919Z,36.71
2023-03-01T08:25:12.531Z,36.75
2023-03-01T08:27:41.228Z,36.73
2023-03-01T08:30:12.021Z,36.75
2023-03-01T08:32:40.851Z,36.80
2023-03-01T08:35:10.522Z,36.85
2023-03-01T08:37:39.352Z,36.70
2023-03-01T08:40:11.942Z,36.74
2023-03-01T08:42:40.675Z,36.96
2023-03-01T08:45:10.637Z,36.64
2023-03-01T08:47:39.368Z,36.73
2023-03-01T08:50:09.413Z,36.54
2023-03-01T08:52:38.011Z,36.76
2023-03-01T08:55:10.108Z,36.82
2023-03-01T08:57:38.688Z,36.84
2023-03-01T09:00:10.408Z,36.81
2023-03-01T09:02:39.818Z,36.73
2023-03-01T09:05:09.369Z,36.81
2023-03-01T09:07:38.093Z,36.81
2023-03-01T09:10:09.662Z,36.89
2023-03-01T09:12:38.213Z,36.77
2023-03-01T09:15:08.185Z,36.72
2023-03-01T09:17:36.714Z,36.81
2023-03-01T09:20:06.941Z,36.83
2023-03-01T09:22:36.242Z,36.86
2023-03-01T09:25:05.168Z,36.97
2023-03-01T09:27:35.130Z,36.88
2023-03-01T09:30:03.810Z,36.85
2023-03-01T09:32:33.080Z,37.00
2023-03-01T09:35:06.085Z,36.93
2023-03-01T09:37:35.371Z,36.90
2023-03-01T09:40:05.059Z,36.76
2023-03-01T09:42:36.714Z,36.75
2023-03-01T09:45:07.661Z,36.78
2023-03-01T09:47:37.554Z,36.91
2023-03-01T09:50:11.795Z,36.51
2023-03-01T09:52:43.129Z,36.85
2023-03-01T09:55:15.094Z,36.76
2023-03-01T09:57:49.753Z,36.74
2023-03-01T10:00:39.363Z,36.61
2023-03-01T10:03:17.203Z,36.80
2023-03-01T10:05:55.502Z,36.77
2023-03-01T10:08:40.057Z,36.72
2023-03-01T10:11:23.305Z,36.69
2023-03-01T10:13:59.894Z,36.73
2023-03-01T10:16:35.524Z,36.88
2023-03-01T10:19:05.958Z,36.73
2023-03-01T10:21:34.800Z,36.63
2023-03-01T10:24:13.498Z,36.69
2023-03-01T10:26:51.162Z,36.75
2023-03-01T10:29:21.115Z,36.69
2023-03-01T10:31:51.479Z,36.83
2023-03-01T10:34:21.696Z,37.01
2023-03-01T10:36:52.156Z,36.98
2023-03-01T10:39:22.034Z,37.15
2023-03-01T10:42:02.148Z,37.21
2023-03-01T10:44:51.032Z,37.05
2023-03-01T10:47:22.526Z,37.12
2023-03-01T10:50:00.596Z,36.91
2023-03-01T10:52:33.092Z,37.04
2023-03-01T10:55:04.638Z,36.89
2023-03-01T10:57:42.345Z,36.95
2023-03-01T11:00:25.405Z,37.03
2023-03-01T11:03:14.044Z,36.89
2023-03-01T11:06:08.071Z,36.80
2023-03-01T11:08:40.016Z,37.08
2023-03-01T11:11:33.912Z,36.99
2023-03-01T11:14:06.578Z,36.94
2023-03-01T11:16:41.897Z,36.79
2023-03-01T11:19:22.559Z,36.92
2023-03-01T11:21:59.409Z,36.97
2023-03-01T11:24:35.524Z,36.91
2023-03-01T11:27:06.081Z,36.75
2023-03-01T11:29:48.108Z,36.86
2023-03-01T11:32:18.922Z,36.89
2023-03-01T11:34:50.622Z,36.83
2023-03-01T11:37:31.113Z,36.71
2023-03-01T11:40:06.993Z,36.85
2023-03-01T11:42:48.432Z,36.83
2023-03-01T11:45:17.191Z,36.88
2023-03-01T11:48:16.862Z,36.82
2023-03-01T11:50:47.218Z,36.83
2023-03-01T11:53:53.557Z,37.04
2023-03-01T11:56:29.854Z,36.96
2023-03-01T11:59:36.259Z,37.04
2023-03-01T12:02:50.061Z,36.96
2023-03-01T12:05:28.378Z,36.85
2023-03-01T12:08:00.330Z,36.92
2023-03-01T12:10:30.568Z,37.10
2023-03-01T12:13:38.651Z,36.96
2023-03-01T12:16:25.970Z,36.80
2023-03-01T12:19:40.208Z,36.87
2023-03-01T12:22:23.264Z,37.04
2023-03-01T12:25:25.693Z,36.73
2023-03-01T12:28:16.214Z,36.84
2023-03-01T12:31:14.074Z,36.79
2023-03-01T12:33:49.808Z,36.77
2023-03-01T12:36:43.623Z,36.77
2023-03-01T12:39:26.439Z,36.81
2023-03-01T12:42:02.770Z,36.66
2023-03-01T12:44:45.011Z,36.79
2023-03-01T12:47:25.643Z,36.73
2023-03-01T12:49:57.613Z,36.72
2023-03-01T12:52:38.281Z,36.70
2023-03-01T12:55:21.852Z,36.78
2023-03-01T12:57:53.875Z,36.86
2023-03-01T13:00:29.687Z,36.72
2023-03-01T13:03:02.337Z,36.58
2023-03-01T13:05:39.559Z,36.97
2023-03-01T13:08:12.064Z,36.65
2023-03-01T13:10:46.751Z,37.14
2023-03-01T13:13:21.005Z,37.12
2023-03-01T13:15:50.330Z,37.34
2023-03-01T13:18:35.331Z,37.34
2023-03-01T13:21:05.940Z,37.26
2023-03-01T13:23:39.768Z,37.06
2023-03-01T13:26:17.297Z,36.98
2023-03-01T13:29:14.349Z,37.01
2023-03-01T13:32:05.220Z,36.97
2023-03-01T13:35:00.250Z,36.87
2023-03-01T13:37:34.832Z,36.87
2023-03-01T13:40:49.093Z,36.86
2023-03-01T13:43:37.350Z,36.76
2023-03-01T13:46:13.336Z,37.19
2023-03-01T13:48:42.103Z,36.84
2023-03-01T13:51:12.617Z,36.97
2023-03-01T13:53:44.156Z,36.36
2023-03-01T13:56:15.417Z,36.64
2023-03-01T13:58:51.571Z,36.67
2023-03-01T14:01:29.659Z,36.56
2023-03-01T14:03:58.926Z,36.58
2023-03-01T14:06:28.541Z,36.57
2023-03-01T14:09:07.068Z,36.42
2023-03-01T14:12:14.841Z,36.80
2023-03-01T14:14:49.010Z,36.52
2023-03-01T14:17:46.218Z,36.69
2023-03-01T14:20:19.819Z,36.78
2023-03-01T14:22:48.628Z,36.64
2023-03-01T14:25:24.914Z,36.47
2023-03-01T14:28:06.089Z,36.63
2023-03-01T14:30:39.173Z,36.66
2023-03-01T14:33:19.881Z,36.57
2023-03-01T14:35:58.724Z,36.59
2023-03-01T14:38:34.031Z,36.59
2023-03-01T14:41:06.703Z,36.50
2023-03-01T14:43:35.590Z,36.63
2023-03-01T14:46:05.984Z,36.90
2023-03-01T14:48:34.830Z,36.99
2023-03-01T14:51:03.453Z,36.72
2023-03-01T14:53:40.147Z,36.68
2023-03-01T14:56:18.806Z,36.72
2023-03-01T14:58:48.701Z,36.70
2023-03-01T15:01:19.540Z,36.73
2023-03-01T15:03:49.213Z,36.85
2023-03-01T15:06:19.207Z,36.81
2023-03-01T15:08:49.450Z,36.84
2023-03-01T15:11:25.441Z,36.90
2023-03-01T15:13:55.185Z,36.89
2023-03-01T15:16:26.475Z,37.01
2023-03-01T15:18:56.920Z,36.99
2023-03-01T15:21:28.157Z,36.85
2023-03-01T15:23:58.928Z,37.02
2023-03-01T15:26:30.845Z,36.88
2023-03-01T15:29:01.174Z,36.61
2023-03-01T15:31:36.185Z,36.67
2023-03-01T15:34:13.693Z,36.85
2023-03-01T15:36:45.304Z,36.83
2023-03-01T15:39:40.888Z,36.64
2023-03-01T15:42:11.210Z,36.66
2023-03-01T15:44:44.335Z,36.69
2023-03-01T15:47:30.565Z,36.63
2023-03-01T15:50:00.138Z,36.90
2023-03-01T15:52:31.050Z,36.76
2023-03-01T15:55:01.741Z,36.73
2023-03-01T15:57:30.827Z,36.83
2023-03-01T15:59:59.398Z,36.78
2023-03-01T16:02:29.468Z,36.65
2023-03-01T16:04:58.441Z,36.62
2023-03-01T16:07:28.987Z,36.59
2023-03-01T16:09:57.664Z,36.53
2023-03-01T16:12:26.338Z,36.69
2023-03-01T16:14:55.093Z,36.62
2023-03-01T16:17:23.886Z,36.60
2023-03-01T16:19:53.901Z,36.77
2023-03-01T16:22:26.363Z,36.67
2023-03-01T16:24:55.166Z,36.66
2023-03-01T16:27:23.791Z,36.89
2023-03-01T16:29:52.430Z,36.62
2023-03-01T16:32:21.189Z,36.74
2023-03-01T16:34:50.444Z,36.67
2023-03-01T16:37:20.770Z,36.76
2023-03-01T16:39:50.873Z,36.93
2023-03-01T16:42:20.383Z,36.88
2023-03-01T16:44:49.142Z,36.61
2023-03-01T16:47:17.766Z,36.66
2023-03-01T16:49:46.499Z,37.07
2023-03-01T16:52:15.118Z,37.17
2023-03-01T16:54:45.121Z,36.97
2023-03-01T16:57:13.711Z,37.17
2023-03-01T16:59:42.810Z,37.51
2023-03-01T17:02:13.152Z,37.24
2023-03-01T17:04:41.848Z,37.33
2023-03-01T17:07:10.527Z,37.23
2023-03-01T17:09:39.434Z,37.35
2023-03-01T17:12:09.541Z,37.16
2023-03-01T17:14:39.282Z,37.57
2023-03-01T17:17:08.075Z,37.27
2023-03-01T17:19:40.781Z,37.33
2023-03-01T17:22:09.653Z,38.05
2023-03-01T17:24:38.808Z,38.38
2023-03-01T17:27:08.951Z,37.51
2023-03-01T17:29:38.149Z,38.28
2023-03-01T17:32:07.181Z,38.62
2023-03-01T17:34:36.127Z,38.75
2023-03-01T17:37:04.854Z,38.86
2023-03-01T17:39:36.554Z,38.93
2023-03-01T17:42:06.698Z,38.63
2023-03-01T17:44:36.871Z,38.42
2023-03-01T17:47:05.840Z,38.60
2023-03-01T17:49:34.581Z,38.23
2023-03-01T17:52:03.252Z,38.16
2023-03-01T17:54:33.631Z,38.20
2023-03-01T17:57:02.505Z,38.25
2023-03-01T17:59:33.649Z,39.28
2023-03-01T18:02:03.801Z,38.55
2023-03-01T18:04:32.824Z,39.08
2023-03-01T18:07:01.938Z,39.82
2023-03-01T18:09:30.628Z,40.36
2023-03-01T18:11:59.738Z,39.21
2023-03-01T18:14:29.949Z,39.80
2023-03-01T18:16:58.704Z,40.32
2023-03-01T18:19:29.236Z,39.53
2023-03-01T18:21:57.933Z,39.26
2023-03-01T18:24:26.979Z,39.57
2023-03-01T18:26:55.732Z,39.69
2023-03-01T18:29:24.375Z,39.77
2023-03-01T18:31:53.237Z,39.66
2023-03-01T18:34:22.559Z,39.52
2023-03-01T18:37:08.707Z,39.42
2023-03-01T18:39:38.124Z,39.46
2023-03-01T18:42:07.261Z,39.29
2023-03-01T18:44:36.137Z,39.19
2023-03-01T18:47:04.978Z,39.16
2023-03-01T18:49:33.765Z,39.03
2023-03-01T18:52:04.134Z,39.04
2023-03-01T18:54:32.770Z,38.90
2023-03-01T18:57:01.433Z,38.74
2023-03-01T18:59:30.855Z,38.71
2023-03-01T19:02:00.085Z,38.77
2023-03-01T19:04:28.809Z,38.59
2023-03-01T19:06:57.970Z,38.37
2023-03-01T19:09:28.848Z,38.54
2023-03-01T19:12:00.912Z,38.62
2023-03-01T19:14:29.770Z,38.32
2023-03-01T19:16:58.276Z,38.54
2023-03-01T19:19:26.913Z,38.55
2023-03-01T19:22:05.282Z,38.40
2023-03-01T19:24:35.983Z,38.44
2023-03-01T19:27:04.813Z,38.33
2023-03-01T19:29:34.005Z,38.28
2023-03-01T19:32:02.797Z,38.36
2023-03-01T19:34:31.979Z,38.29
2023-03-01T19:37:00.635Z,38.25
2023-03-01T19:39:29.508Z,38.23
2023-03-01T19:41:59.801Z,38.25
2023-03-01T19:44:28.493Z,38.23
2023-03-01T19:46:58.228Z,38.05
2023-03-01T19:49:27.057Z,38.11
2023-03-01T19:51:55.810Z,38.08
2023-03-01T19:54:24.443Z,38.08
2023-03-01T19:56:53.263Z,38.01
2023-03-01T19:59:24.662Z,38.17
2023-03-01T20:01:53.691Z,38.09
2023-03-01T20:04:22.775Z,37.97
2023-03-01T20:06:51.393Z,37.98
2023-03-01T20:09:22.112Z,38.02
2023-03-01T20:11:51.661Z,38.00
2023-03-01T20:14:23.532Z,37.96
2023-03-01T20:16:53.992Z,37.91
2023-03-01T20:19:22.712Z,37.85
2023-03-01T20:21:51.322Z,37.76
2023-03-01T20:24:19.893Z,37.90
2023-03-01T20:26:48.587Z,37.67
2023-03-01T20:29:17.265Z,37.75
2023-03-01T20:31:45.878Z,37.75
2023-03-01T20:34:16.010Z,37.71
2023-03-01T20:36:44.549Z,37.73
2023-03-01T20:39:13.232Z,37.76
2023-03-01T20:41:41.832Z,37.82
2023-03-01T20:44:10.536Z,37.72
2023-03-01T20:46:39.619Z,37.79
2023-03-01T20:49:08.458Z,37.69
2023-03-01T20:51:38.420Z,37.61
2023-03-01T20:54:07.079Z,37.66
2023-03-01T20:56:36.058Z,37.67
2023-03-01T20:59:05.464Z,37.71
2023-03-01T21:01:33.999Z,37.57
2023-03-01T21:04:02.713Z,37.66
2023-03-01T21:06:32.076Z,37.50
2023-03-01T21:09:02.418Z,37.48
2023-03-01T21:11:30.975Z,37.48
2023-03-01T21:13:59.532Z,37.72
2023-03-01T21:16:28.188Z,37.48
2023-03-01T21:18:56.908Z,37.36
2023-03-01T21:21:25.577Z,37.41
2023-03-01T21:23:55.178Z,37.46
2023-03-01T21:26:26.169Z,37.41
2023-03-01T21:28:57.137Z,37.37
2023-03-01T21:31:27.673Z,37.40
2023-03-01T21:33:57.961Z,37.29
2023-03-01T21:36:27.326Z,37.27
2023-03-01T21:38:56.163Z,37.35
2023-03-01T21:41:27.409Z,37.37
2023-03-01T21:43:59.372Z,37.34
2023-03-01T21:46:30.925Z,37.36
2023-03-01T21:48:59.817Z,37.32
2023-03-01T21:51:30.629Z,37.20
2023-03-01T21:53:59.755Z,37.16
2023-03-01T21:56:32.125Z,37.22
2023-03-01T21:59:00.979Z,37.28
2023-03-01T22:01:30.078Z,37.21
2023-03-01T22:03:59.932Z,37.29
2023-03-01T22:06:30.992Z,37.18
2023-03-01T22:09:01.157Z,37.18
2023-03-01T22:11:31.942Z,37.18
2023-03-01T22:14:00.613Z,37.11
2023-03-01T22:16:30.975Z,37.10
2023-03-01T22:19:00.160Z,37.14
2023-03-01T22:21:28.899Z,37.06
2023-03-01T22:23:57.553Z,37.16
2023-03-01T22:26:28.175Z,36.99
2023-03-01T22:29:00.281Z,37.20
2023-03-01T22:31:29.165Z,37.26
2023-03-01T22:33:58.217Z,37.06
2023-03-01T22:36:26.946Z,37.00
2023-03-01T22:39:00.172Z,37.15
2023-03-01T22:41:29.657Z,37.03
2023-03-01T22:43:59.679Z,36.95
2023-03-01T22:46:28.854Z,37.07
2023-03-01T22:48:57.721Z,36.98
2023-03-01T22:51:30.704Z,37.05
2023-03-01T22:53:59.980Z,36.98
2023-03-01T22:56:30.762Z,36.99
2023-03-01T22:59:01.581Z,37.08
2023-03-01T23:01:30.480Z,36.97
2023-03-01T23:03:59.239Z,36.95
2023-03-01T23:06:30.922Z,36.89
2023-03-01T23:09:00.960Z,36.96
2023-03-01T23:11:29.846Z,36.96
2023-03-01T23:14:00.774Z,36.93
2023-03-01T23:16:29.439Z,36.88
2023-03-01T23:18:59.130Z,36.89
2023-03-01T23:21:27.792Z,36.93
2023-03-01T23:23:57.342Z,36.76
2023-03-01T23:26:27.183Z,36.81
2023-03-01T23:28:56.419Z,36.67
2023-03-01T23:31:30.128Z,36.84
2023-03-01T23:33:58.848Z,36.76
2023-03-01T23:36:28.838Z,36.84
2023-03-01T23:38:59.118Z,36.78
2023-03-01T23:41:30.068Z,36.71
2023-03-01T23:44:00.272Z,36.69
2023-03-01T23:46:32.989Z,36.77
2023-03-01T23:49:02.126Z,36.61
2023-03-01T23:51:30.759Z,36.66
2023-03-01T23:54:01.822Z,36.62
2023-03-01T23:56:32.387Z,36.72
2023-03-01T23:59:03.957Z,36.78
